Time;durP1;ratioP1;P1;durP2;ratioP2;P2;SDS_P1;SDS_P2;PMS_P1;PMS_P2;Temp;Humidity;BMP_temperature;BMP_pressure;BME280_temperature;BME280_humidity;BME280_pressure;Samples;Min_cycle;Max_cycle;Signal;HPM_P1;HPM_P2
2021/05/19 00:00:57;;;;;;;2.40;1.50;;;14.50;55.40;;;;;;5109496;28;20035;-80
2021/05/19 00:03:23;;;;;;;2.92;1.67;;;14.50;55.50;;;;;;5091540;28;20474;-81
2021/05/19 00:05:49;;;;;;;5.25;2.10;;;14.40;55.30;;;;;;5074341;28;20390;-81
2021/05/19 00:08:16;;;;;;;3.50;1.90;;;14.50;55.60;;;;;;5109492;28;20043;-81
2021/05/19 00:10:42;;;;;;;1.40;1.23;;;14.40;55.50;;;;;;5090693;28;20035;-84
2021/05/19 00:13:07;;;;;;;2.40;1.80;;;14.40;55.50;;;;;;5109888;28;20531;-85
2021/05/19 00:15:34;;;;;;;3.10;1.92;;;14.40;55.50;;;;;;5109175;28;20027;-81
2021/05/19 00:18:03;;;;;;;2.53;2.05;;;14.40;55.60;;;;;;5091597;28;20096;-79
2021/05/19 00:20:29;;;;;;;3.20;1.73;;;14.40;55.60;;;;;;5091377;28;20066;-80
2021/05/19 00:22:55;;;;;;;3.25;1.83;;;14.40;55.70;;;;;;5091082;28;20367;-83
2021/05/19 00:25:21;;;;;;;2.10;1.70;;;14.40;55.70;;;;;;5091670;28;20039;-85
2021/05/19 00:27:47;;;;;;;3.15;1.90;;;14.30;55.60;;;;;;5091276;28;20432;-85
2021/05/19 00:30:17;;;;;;;2.15;1.60;;;14.30;55.70;;;;;;5110049;28;20027;-83
2021/05/19 00:32:44;;;;;;;4.70;1.80;;;14.30;55.70;;;;;;5091846;28;20027;-85
2021/05/19 00:35:10;;;;;;;1.50;1.30;;;14.30;55.70;;;;;;5091446;28;20107;-82
2021/05/19 00:37:36;;;;;;;1.67;1.40;;;14.30;55.80;;;;;;5109522;28;20027;-83
2021/05/19 00:40:04;;;;;;;4.10;1.80;;;14.30;55.80;;;;;;5127380;27;20103;-78
2021/05/19 00:42:29;;;;;;;2.55;1.85;;;14.20;55.70;;;;;;5111346;27;20028;-86
2021/05/19 00:44:56;;;;;;;1.98;1.73;;;14.20;55.70;;;;;;5110904;27;20035;-79
2021/05/19 00:47:48;;;;;;;2.15;1.92;;;14.20;55.80;;;;;;5073322;28;20066;-78
2021/05/19 00:50:19;;;;;;;1.95;1.70;;;14.20;55.90;;;;;;5086114;28;20031;-80
2021/05/19 00:52:46;;;;;;;2.70;2.00;;;14.10;55.70;;;;;;5090391;28;20437;-82
2021/05/19 00:55:13;;;;;;;1.88;1.67;;;14.10;55.70;;;;;;5108681;28;20032;-81
2021/05/19 00:57:41;;;;;;;2.45;1.83;;;14.10;55.80;;;;;;5074621;28;20080;-80
2021/05/19 01:00:13;;;;;;;1.90;1.70;;;14.10;55.80;;;;;;5090671;28;20043;-85
2021/05/19 01:02:52;;;;;;;3.03;2.03;;;14.10;55.90;;;;;;5075836;28;20038;-86
2021/05/19 01:05:27;;;;;;;2.65;1.70;;;14.10;55.90;;;;;;5074286;28;20043;-86
2021/05/19 01:10:44;;;;;;;3.45;1.95;;;14.00;55.80;;;;;;5091058;28;20040;-84
2021/05/19 01:13:10;;;;;;;2.70;1.73;;;14.00;55.80;;;;;;5109470;28;20221;-87
2021/05/19 01:15:37;;;;;;;5.03;2.35;;;14.00;55.90;;;;;;5090507;28;20055;-86
2021/05/19 01:18:04;;;;;;;2.40;1.83;;;14.00;56.00;;;;;;5109008;28;20474;-85
2021/05/19 01:20:31;;;;;;;2.90;1.88;;;14.00;56.00;;;;;;5108688;28;20035;-86
2021/05/19 01:22:57;;;;;;;4.50;1.95;;;13.90;55.90;;;;;;5089412;28;20030;-87
2021/05/19 01:25:23;;;;;;;2.72;1.85;;;13.90;55.90;;;;;;5090715;28;20084;-82
2021/05/19 01:27:54;;;;;;;3.15;2.15;;;13.90;56.00;;;;;;5090631;28;20112;-87
2021/05/19 01:30:21;;;;;;;1.75;1.65;;;13.90;56.00;;;;;;5089717;28;20180;-85
2021/05/19 01:32:48;;;;;;;2.05;1.83;;;13.90;56.10;;;;;;5108160;28;20585;-79
2021/05/19 01:35:14;;;;;;;1.95;1.75;;;13.90;56.10;;;;;;5090407;28;20464;-81
2021/05/19 01:37:42;;;;;;;2.65;1.88;;;13.90;56.10;;;;;;5089991;28;20403;-79
2021/05/19 01:40:10;;;;;;;2.97;2.00;;;13.90;56.20;;;;;;5090097;28;20031;-82
2021/05/19 01:42:36;;;;;;;2.90;1.58;;;13.80;56.10;;;;;;5090226;28;20028;-84
2021/05/19 01:45:10;;;;;;;2.97;2.00;;;13.80;56.10;;;;;;5089495;28;20065;-81
2021/05/19 01:47:45;;;;;;;;;;;13.80;56.10;;;;;;5084411;28;719567;-84
2021/05/19 01:50:13;;;;;;;2.38;1.98;;;13.80;56.00;;;;;;5077106;28;19907;-87
2021/05/19 01:52:41;;;;;;;2.72;1.98;;;13.80;56.00;;;;;;5111886;28;20092;-83
2021/05/19 01:55:10;;;;;;;2.35;1.88;;;13.80;56.10;;;;;;5093757;28;20032;-85
2021/05/19 01:57:38;;;;;;;2.30;1.80;;;13.80;56.10;;;;;;5077273;28;20387;-82
2021/05/19 02:00:06;;;;;;;3.08;1.80;;;13.70;56.00;;;;;;5094334;28;20503;-83
2021/05/19 02:02:42;;;;;;;2.88;1.67;;;13.70;56.10;;;;;;5111840;28;20467;-85
2021/05/19 02:05:15;;;;;;;2.45;1.80;;;13.70;56.10;;;;;;5093865;28;20039;-85
2021/05/19 02:07:41;;;;;;;4.90;1.80;;;13.70;56.20;;;;;;5094266;28;20028;-82
2021/05/19 02:10:10;;;;;;;2.20;1.50;;;13.70;56.20;;;;;;5093777;28;20035;-86
2021/05/19 02:12:37;;;;;;;2.30;1.80;;;13.70;56.20;;;;;;5077147;28;20031;-81
2021/05/19 02:15:05;;;;;;;2.17;1.60;;;13.70;56.20;;;;;;5093223;28;20497;-83
2021/05/19 02:17:32;;;;;;;2.92;1.98;;;13.70;56.30;;;;;;5095577;28;20039;-84
2021/05/19 02:20:10;;;;;;;2.85;1.63;;;13.70;56.30;;;;;;5080899;28;20031;-84
2021/05/19 02:22:37;;;;;;;2.35;1.70;;;13.60;56.20;;;;;;5097298;28;20051;-79
2021/05/19 02:25:04;;;;;;;2.10;1.60;;;13.70;56.40;;;;;;5115360;28;20040;-82
2021/05/19 02:27:31;;;;;;;2.40;1.77;;;13.60;56.20;;;;;;5114929;28;20110;-84
2021/05/19 02:29:59;;;;;;;2.33;1.70;;;13.60;56.20;;;;;;5097164;28;20028;-83
2021/05/19 02:32:27;;;;;;;2.10;1.90;;;13.60;56.30;;;;;;5098015;28;20189;-81
2021/05/19 02:34:55;;;;;;;2.00;1.80;;;13.50;56.20;;;;;;5096992;28;20024;-83
2021/05/19 02:37:21;;;;;;;1.85;1.63;;;13.50;56.20;;;;;;5097203;28;20400;-84
2021/05/19 02:39:48;;;;;;;3.28;1.75;;;13.50;56.30;;;;;;5097170;28;20036;-80
2021/05/19 02:42:15;;;;;;;3.17;2.13;;;13.50;56.30;;;;;;5097508;28;20048;-82
2021/05/19 02:44:41;;;;;;;2.95;1.92;;;13.50;56.40;;;;;;5097281;28;20075;-84
2021/05/19 02:47:07;;;;;;;1.75;1.65;;;13.50;56.40;;;;;;5114567;28;20039;-84
2021/05/19 02:49:34;;;;;;;5.68;1.80;;;13.40;56.30;;;;;;5096750;28;20542;-81
2021/05/19 02:52:00;;;;;;;4.00;2.03;;;13.40;56.40;;;;;;5115079;28;20394;-82
2021/05/19 02:54:26;;;;;;;2.55;1.60;;;13.40;56.40;;;;;;5114765;28;20106;-83
2021/05/19 02:56:52;;;;;;;2.35;1.80;;;13.40;56.40;;;;;;5115159;28;20170;-82
2021/05/19 02:59:18;;;;;;;1.90;1.60;;;13.40;56.40;;;;;;5097042;28;20085;-81
2021/05/19 03:01:45;;;;;;;2.08;1.50;;;13.30;56.30;;;;;;5115161;28;20023;-84
2021/05/19 03:04:11;;;;;;;2.33;1.70;;;13.30;56.30;;;;;;5096956;28;20024;-85
2021/05/19 03:06:37;;;;;;;2.03;1.70;;;13.30;56.40;;;;;;5096546;28;20031;-82
2021/05/19 03:09:04;;;;;;;2.17;1.42;;;13.30;56.40;;;;;;5115150;28;20031;-86
2021/05/19 03:11:31;;;;;;;2.20;1.60;;;13.30;56.50;;;;;;5115212;28;20027;-84
2021/05/19 03:13:57;;;;;;;2.78;1.50;;;13.30;56.50;;;;;;5115154;28;20035;-85
2021/05/19 03:16:23;;;;;;;2.95;1.85;;;13.30;56.50;;;;;;5114999;28;20031;-83
2021/05/19 03:18:49;;;;;;;2.53;1.88;;;13.20;56.40;;;;;;5114739;28;20031;-86
2021/05/19 03:21:15;;;;;;;2.35;1.60;;;13.20;56.40;;;;;;5079763;28;20046;-81
2021/05/19 03:23:41;;;;;;;2.50;1.75;;;13.20;56.40;;;;;;5114919;28;20115;-84
2021/05/19 03:26:07;;;;;;;3.22;1.58;;;13.20;56.40;;;;;;5115286;28;20123;-83
2021/05/19 03:28:33;;;;;;;4.18;1.42;;;13.20;56.50;;;;;;5097141;28;20032;-86
2021/05/19 03:30:59;;;;;;;2.20;1.77;;;13.20;56.50;;;;;;5114925;28;20028;-84
2021/05/19 03:33:25;;;;;;;1.65;1.55;;;13.10;56.40;;;;;;5114709;28;20051;-84
2021/05/19 03:35:51;;;;;;;2.17;1.55;;;13.10;57.00;;;;;;5096491;28;20031;-84
2021/05/19 03:38:17;;;;;;;1.63;1.52;;;13.10;56.50;;;;;;5096211;28;20042;-81
2021/05/19 03:40:44;;;;;;;1.85;1.50;;;13.10;56.50;;;;;;5114505;28;20035;-85
2021/05/19 03:43:11;;;;;;;1.67;1.58;;;13.10;56.60;;;;;;5096603;28;20027;-82
2021/05/19 03:45:37;;;;;;;1.67;1.55;;;13.10;56.60;;;;;;5095812;28;20510;-81
2021/05/19 03:48:04;;;;;;;2.17;1.88;;;13.00;56.40;;;;;;5113750;28;20046;-82
2021/05/19 03:50:30;;;;;;;2.20;1.58;;;13.00;56.50;;;;;;5095874;28;20228;-80
2021/05/19 03:52:58;;;;;;;1.58;1.48;;;13.00;56.50;;;;;;5095818;28;20122;-82
2021/05/19 03:55:25;;;;;;;2.13;1.70;;;13.00;56.60;;;;;;5095541;28;20031;-82
2021/05/19 03:57:51;;;;;;;2.28;1.90;;;12.90;56.40;;;;;;5113679;28;20061;-83
2021/05/19 04:00:27;;;;;;;1.52;1.40;;;12.90;56.40;;;;;;5095742;28;20485;-84
2021/05/19 04:02:54;;;;;;;2.15;1.60;;;12.90;56.50;;;;;;5080010;28;20023;-89
2021/05/19 04:05:27;;;;;;;1.85;1.30;;;12.90;56.40;;;;;;5114825;28;20054;-86
2021/05/19 04:07:54;;;;;;;1.92;1.60;;;12.90;56.60;;;;;;5096174;28;20035;-81
2021/05/19 04:10:21;;;;;;;1.75;1.50;;;12.80;56.30;;;;;;5096129;28;20081;-87
2021/05/19 04:12:49;;;;;;;1.52;1.33;;;12.80;56.40;;;;;;5096373;28;20035;-83
2021/05/19 04:15:17;;;;;;;1.55;1.20;;;12.80;56.40;;;;;;5079530;28;20031;-83
2021/05/19 04:17:43;;;;;;;1.95;1.48;;;12.80;56.50;;;;;;5078889;28;20078;-85
2021/05/19 04:20:10;;;;;;;1.55;1.40;;;12.80;56.60;;;;;;5078931;28;20088;-81
2021/05/19 04:22:36;;;;;;;1.77;1.60;;;12.70;56.50;;;;;;5113482;28;20115;-85
2021/05/19 04:25:03;;;;;;;1.50;1.40;;;12.70;56.50;;;;;;5113602;28;20119;-84
2021/05/19 04:27:29;;;;;;;2.17;1.73;;;12.70;56.50;;;;;;5094937;28;20043;-81
2021/05/19 04:29:55;;;;;;;2.63;1.70;;;12.70;56.50;;;;;;5113479;28;20024;-83
2021/05/19 04:32:21;;;;;;;2.33;1.70;;;12.70;56.60;;;;;;5113454;28;20401;-84
2021/05/19 04:34:47;;;;;;;2.42;1.67;;;12.60;56.40;;;;;;5113225;28;20103;-86
2021/05/19 04:37:13;;;;;;;1.55;1.45;;;12.70;56.70;;;;;;5112897;28;20206;-83
2021/05/19 04:39:39;;;;;;;1.90;1.30;;;12.70;56.70;;;;;;5112588;28;20034;-81
2021/05/19 04:42:05;;;;;;;3.80;1.90;;;12.70;56.70;;;;;;5113382;28;20110;-82
2021/05/19 04:44:31;;;;;;;3.90;1.80;;;12.60;56.60;;;;;;5113404;28;20027;-84
2021/05/19 04:46:57;;;;;;;1.60;1.50;;;12.60;56.60;;;;;;5113327;28;20466;-83
2021/05/19 04:49:23;;;;;;;2.45;1.88;;;12.60;56.60;;;;;;5087693;28;20077;-86
2021/05/19 04:51:49;;;;;;;1.98;1.60;;;12.60;56.60;;;;;;5071651;28;20028;-86
2021/05/19 04:54:16;;;;;;;2.40;1.73;;;12.60;56.70;;;;;;5090393;28;20039;-85
2021/05/19 04:56:42;;;;;;;3.10;2.13;;;12.60;56.60;;;;;;5090156;28;20055;-84
2021/05/19 04:59:08;;;;;;;1.58;1.48;;;12.60;56.70;;;;;;5089352;28;20474;-83
2021/05/19 05:01:34;;;;;;;3.22;1.80;;;12.60;56.70;;;;;;5089262;28;20020;-81
2021/05/19 05:04:00;;;;;;;1.85;1.58;;;12.60;56.70;;;;;;5069858;28;20544;-82
2021/05/19 05:06:27;;;;;;;1.63;1.50;;;12.60;56.70;;;;;;5087782;28;20035;-85
2021/05/19 05:08:53;;;;;;;2.20;1.67;;;12.70;56.90;;;;;;5087984;28;20118;-85
2021/05/19 05:11:19;;;;;;;1.75;1.52;;;12.70;56.90;;;;;;5069887;28;20035;-85
2021/05/19 05:13:45;;;;;;;2.22;1.42;;;12.70;56.90;;;;;;5088041;28;20040;-80
2021/05/19 05:16:12;;;;;;;2.80;1.77;;;12.80;57.10;;;;;;5087978;28;20383;-84
2021/05/19 05:18:40;;;;;;;1.80;1.58;;;12.80;57.10;;;;;;5087684;28;20505;-84
2021/05/19 05:21:07;;;;;;;2.42;1.70;;;12.80;57.00;;;;;;5087792;28;20024;-83
2021/05/19 05:23:33;;;;;;;1.65;1.52;;;12.80;57.00;;;;;;5088756;28;20574;-84
2021/05/19 05:26:01;;;;;;;3.90;1.90;;;12.90;57.10;;;;;;5088334;28;20040;-86
2021/05/19 05:28:27;;;;;;;2.08;1.50;;;12.90;57.20;;;;;;5088875;28;20024;-84
2021/05/19 05:30:55;;;;;;;1.83;1.63;;;13.00;57.30;;;;;;5069179;28;20047;-84
2021/05/19 05:33:22;;;;;;;2.08;1.45;;;13.00;57.30;;;;;;5088396;28;20296;-81
2021/05/19 05:35:49;;;;;;;1.85;1.70;;;13.10;57.40;;;;;;5069624;28;20702;-85
2021/05/19 05:38:15;;;;;;;1.30;1.20;;;13.10;57.30;;;;;;5086889;28;20024;-83
2021/05/19 05:40:41;;;;;;;1.75;1.60;;;13.20;57.50;;;;;;5087357;28;20483;-84
2021/05/19 05:43:07;;;;;;;1.65;1.40;;;13.20;57.40;;;;;;5069916;28;20046;-85
2021/05/19 05:45:33;;;;;;;1.60;1.50;;;13.30;57.50;;;;;;5069923;28;20150;-83
2021/05/19 05:47:59;;;;;;;1.55;1.45;;;13.30;57.50;;;;;;5106655;28;20438;-82
2021/05/19 05:50:26;;;;;;;2.00;1.80;;;13.40;57.60;;;;;;5089707;28;20474;-84
2021/05/19 05:52:52;;;;;;;2.20;1.50;;;13.40;57.60;;;;;;5074868;28;20404;-82
2021/05/19 05:55:20;;;;;;;1.88;1.50;;;13.50;57.80;;;;;;5111834;28;20024;-81
2021/05/19 05:57:48;;;;;;;3.17;1.60;;;13.50;57.70;;;;;;5111800;28;20027;-82
2021/05/19 06:00:15;;;;;;;1.92;1.40;;;13.60;57.80;;;;;;5076364;28;20482;-81
2021/05/19 06:02:42;;;;;;;2.28;1.85;;;13.60;58.00;;;;;;5111213;28;20027;-85
2021/05/19 06:05:10;;;;;;;1.67;1.50;;;13.70;58.40;;;;;;5093242;28;20042;-83
2021/05/19 06:07:36;;;;;;;2.47;1.80;;;13.70;58.40;;;;;;5112120;28;20031;-81
2021/05/19 06:10:03;;;;;;;2.00;1.58;;;13.80;58.50;;;;;;5111662;28;20031;-80
2021/05/19 06:12:29;;;;;;;2.83;1.60;;;13.90;58.70;;;;;;5111894;28;20522;-81
2021/05/19 06:14:55;;;;;;;2.75;1.50;;;13.90;58.70;;;;;;5111772;28;20035;-84
2021/05/19 06:17:21;;;;;;;2.47;1.50;;;13.90;58.70;;;;;;5111051;28;20031;-83
2021/05/19 06:19:47;;;;;;;1.95;1.63;;;13.90;58.70;;;;;;5111737;28;20120;-82
2021/05/19 06:22:13;;;;;;;2.40;1.92;;;14.00;58.90;;;;;;5111791;28;20493;-85
2021/05/19 06:24:39;;;;;;;1.65;1.30;;;14.10;59.10;;;;;;5105753;27;20489;-82
2021/05/19 06:27:06;;;;;;;2.28;1.60;;;14.30;59.50;;;;;;5113017;27;20031;-83
2021/05/19 06:29:32;;;;;;;3.83;1.75;;;14.40;59.80;;;;;;5113302;27;20032;-81
2021/05/19 06:31:58;;;;;;;2.35;1.77;;;14.60;59.90;;;;;;5087018;28;20032;-85
2021/05/19 06:34:24;;;;;;;1.90;1.70;;;14.90;60.30;;;;;;5108812;28;20028;-85
2021/05/19 06:36:51;;;;;;;2.55;1.60;;;15.10;60.50;;;;;;5111016;28;20042;-83
2021/05/19 06:39:19;;;;;;;2.28;1.60;;;15.30;60.70;;;;;;5111114;28;20356;-85
2021/05/19 06:41:48;;;;;;;2.25;1.40;;;15.60;60.80;;;;;;5111158;28;20036;-78
2021/05/19 06:44:16;;;;;;;2.33;1.40;;;15.90;61.00;;;;;;5093100;28;20134;-88
2021/05/19 06:46:42;;;;;;;2.20;1.67;;;16.00;60.70;;;;;;5093216;28;20048;-83
2021/05/19 06:49:09;;;;;;;1.92;1.80;;;16.20;60.70;;;;;;5093151;28;20119;-80
2021/05/19 06:51:35;;;;;;;1.42;1.10;;;16.40;60.90;;;;;;5111186;28;20031;-78
2021/05/19 06:54:01;;;;;;;1.30;1.20;;;16.50;60.80;;;;;;5127080;27;20063;-82
2021/05/19 06:56:27;;;;;;;1.60;1.20;;;16.60;60.70;;;;;;5113041;27;20034;-84
2021/05/19 06:58:54;;;;;;;1.15;1.08;;;16.70;60.60;;;;;;5100337;28;20490;-83
2021/05/19 07:01:21;;;;;;;1.30;1.20;;;16.90;60.70;;;;;;5111415;28;20034;-85
2021/05/19 07:03:50;;;;;;;1.88;1.38;;;16.90;60.50;;;;;;5110585;28;20368;-85
2021/05/19 07:06:17;;;;;;;1.33;1.17;;;17.00;60.50;;;;;;5076396;28;20494;-83
2021/05/19 07:08:43;;;;;;;4.10;1.20;;;17.10;60.50;;;;;;5076805;28;20491;-87
2021/05/19 07:11:09;;;;;;;1.88;1.30;;;17.10;60.30;;;;;;5092532;28;20036;-83
2021/05/19 07:13:35;;;;;;;1.90;1.60;;;17.20;60.30;;;;;;5109918;28;20056;-83
2021/05/19 07:16:02;;;;;;;2.08;1.38;;;17.20;60.20;;;;;;5092529;28;20082;-81
2021/05/19 07:18:28;;;;;;;1.10;1.00;;;17.20;60.00;;;;;;5091756;28;20019;-84
2021/05/19 07:20:55;;;;;;;1.00;1.00;;;17.20;60.00;;;;;;5110219;28;20390;-82
2021/05/19 07:23:21;;;;;;;1.42;1.10;;;17.20;59.90;;;;;;5091356;28;20031;-82
2021/05/19 07:25:48;;;;;;;1.08;1.08;;;17.20;59.90;;;;;;5092038;28;20550;-83
2021/05/19 07:28:14;;;;;;;1.77;1.30;;;17.10;59.70;;;;;;5071411;28;20024;-82
2021/05/19 07:30:44;;;;;;;1.75;1.15;;;17.10;59.60;;;;;;5055647;28;20036;-83
2021/05/19 07:33:11;;;;;;;1.90;1.30;;;17.10;59.60;;;;;;5064285;28;20031;-85
2021/05/19 07:35:38;;;;;;;1.20;1.08;;;17.10;59.50;;;;;;5074833;28;20050;-82
2021/05/19 07:38:09;;;;;;;1.20;1.10;;;17.00;59.30;;;;;;5091826;28;20370;-85
2021/05/19 07:40:35;;;;;;;1.35;1.20;;;17.00;59.30;;;;;;5109662;28;20031;-84
2021/05/19 07:43:02;;;;;;;1.70;1.13;;;17.00;59.30;;;;;;5091833;28;20024;-84
2021/05/19 07:45:32;;;;;;;2.25;1.30;;;16.90;59.10;;;;;;5091725;28;20398;-82
2021/05/19 07:47:58;;;;;;;1.67;1.30;;;17.00;59.30;;;;;;5070509;28;20047;-82
2021/05/19 07:50:24;;;;;;;1.25;1.10;;;17.00;59.30;;;;;;5071194;28;20028;-81
2021/05/19 07:52:51;;;;;;;1.75;1.33;;;17.00;59.20;;;;;;5077009;28;20031;-83
2021/05/19 07:55:25;;;;;;;1.20;1.10;;;17.00;59.10;;;;;;5074474;28;20028;-82
2021/05/19 07:57:55;;;;;;;1.10;1.00;;;17.00;59.00;;;;;;5108965;28;20031;-82
2021/05/19 08:02:48;;;;;;;1.33;1.20;;;17.10;59.00;;;;;;5091946;28;20030;-81
2021/05/19 08:05:14;;;;;;;2.33;1.52;;;17.10;59.00;;;;;;5091367;28;20040;-81
2021/05/19 08:07:40;;;;;;;1.20;1.02;;;17.20;59.20;;;;;;5076208;27;20363;-82
2021/05/19 08:10:06;;;;;;;1.20;0.90;;;17.20;59.10;;;;;;5129765;27;20035;-80
2021/05/19 08:12:32;;;;;;;1.58;1.20;;;17.40;59.40;;;;;;5126030;27;20028;-80
2021/05/19 08:14:59;;;;;;;3.97;1.25;;;17.50;59.50;;;;;;5108975;28;20532;-80
2021/05/19 08:17:25;;;;;;;1.42;1.33;;;17.70;59.60;;;;;;5091932;28;20414;-84
2021/05/19 08:19:51;;;;;;;1.30;1.20;;;18.00;59.90;;;;;;5091085;28;20115;-80
2021/05/19 08:22:17;;;;;;;1.95;1.35;;;18.60;60.30;;;;;;5074264;28;20555;-82
2021/05/19 08:24:44;;;;;;;1.95;1.20;;;19.00;59.70;;;;;;5058159;28;20043;-82
2021/05/19 08:27:11;;;;;;;2.72;1.60;;;19.30;59.50;;;;;;5074456;28;20050;-81
2021/05/19 08:29:38;;;;;;;3.20;1.30;;;19.40;59.20;;;;;;5073756;28;20031;-81
2021/05/19 08:32:05;;;;;;;1.80;1.13;;;19.60;59.30;;;;;;5109861;28;20022;-84
2021/05/19 08:34:31;;;;;;;1.23;0.98;;;19.80;59.30;;;;;;5090803;28;20036;-84
2021/05/19 08:36:56;;;;;;;2.45;1.42;;;20.00;59.30;;;;;;5090517;28;20077;-82
2021/05/19 08:39:23;;;;;;;1.42;1.10;;;20.30;59.20;;;;;;5089834;28;20119;-82
2021/05/19 08:41:49;;;;;;;1.35;1.08;;;20.60;59.20;;;;;;5073952;28;20118;-84
2021/05/19 08:44:17;;;;;;;1.90;1.15;;;20.90;58.90;;;;;;5073649;28;20490;-86
2021/05/19 08:46:48;;;;;;;1.17;1.00;;;21.00;58.60;;;;;;5074162;28;20050;-83
2021/05/19 08:49:15;;;;;;;3.40;1.10;;;21.20;58.80;;;;;;5073538;28;20031;-82
2021/05/19 08:51:43;;;;;;;0.90;0.80;;;21.50;58.60;;;;;;5074506;28;20055;-83
2021/05/19 08:54:10;;;;;;;1.20;1.10;;;21.60;58.30;;;;;;5090550;28;20027;-82
2021/05/19 08:56:41;;;;;;;1.10;1.00;;;21.60;58.10;;;;;;5073497;28;20053;-81
2021/05/19 08:59:07;;;;;;;1.58;1.20;;;21.60;58.00;;;;;;5072939;28;20050;-82
2021/05/19 09:02:02;;;;;;;1.25;0.90;;;21.60;58.20;;;;;;5073006;28;20038;-82
2021/05/19 09:04:28;;;;;;;1.08;0.85;;;21.60;58.20;;;;;;5072175;28;20406;-84
2021/05/19 09:06:56;;;;;;;1.05;1.00;;;21.70;58.50;;;;;;5107978;28;20073;-81
2021/05/19 09:09:39;;;;;;;1.13;1.00;;;21.80;58.50;;;;;;5052858;28;20380;-81
2021/05/19 09:12:16;;;;;;;2.30;1.00;;;21.90;58.30;;;;;;5086419;28;20028;-84
2021/05/19 09:15:00;;;;;;;1.10;1.00;;;22.10;58.50;;;;;;5069434;28;20119;-84
2021/05/19 09:17:34;;;;;;;1.30;1.08;;;22.10;58.30;;;;;;5053157;28;20177;-84
2021/05/19 09:20:06;;;;;;;1.60;1.00;;;22.20;58.30;;;;;;5072295;28;20027;-82
2021/05/19 09:22:46;;;;;;;3.15;1.42;;;22.30;58.40;;;;;;5089655;28;20420;-84
2021/05/19 09:25:26;;;;;;;1.27;1.00;;;22.40;58.30;;;;;;5090585;28;20490;-83
2021/05/19 09:27:57;;;;;;;1.42;1.17;;;22.60;58.40;;;;;;5074489;28;20182;-83
2021/05/19 09:30:42;;;;;;;2.00;1.17;;;22.70;58.30;;;;;;5109578;28;20019;-85
2021/05/19 09:33:24;;;;;;;1.42;1.02;;;22.90;58.10;;;;;;5072709;28;20035;-84
2021/05/19 09:36:28;;;;;;;1.10;1.00;;;23.00;57.90;;;;;;5074758;28;20034;-86
2021/05/19 09:38:54;;;;;;;1.15;1.00;;;23.20;58.20;;;;;;5092220;28;20039;-83
2021/05/19 09:41:26;;;;;;;1.15;1.05;;;23.20;58.00;;;;;;5090861;28;20693;-87
2021/05/19 09:43:56;;;;;;;1.95;0.90;;;23.30;57.90;;;;;;5092824;28;20047;-84
2021/05/19 09:49:23;;;;;;;1.70;0.90;;;23.50;57.90;;;;;;5090202;28;20044;-81
2021/05/19 09:51:54;;;;;;;0.85;0.85;;;23.50;57.60;;;;;;5088381;28;20039;-81
2021/05/19 09:54:27;;;;;;;1.50;1.17;;;23.60;57.70;;;;;;5072064;28;20041;-81
2021/05/19 09:56:56;;;;;;;1.60;1.23;;;23.60;57.60;;;;;;5088919;28;20039;-80
2021/05/19 09:59:23;;;;;;;2.60;1.13;;;23.50;57.40;;;;;;5068751;28;20024;-84
2021/05/19 10:01:51;;;;;;;3.15;1.00;;;23.60;57.60;;;;;;5085780;28;20082;-81
2021/05/19 10:04:19;;;;;;;1.38;1.00;;;23.60;57.40;;;;;;5086413;28;20027;-80
2021/05/19 10:06:46;;;;;;;1.48;0.95;;;23.70;58.00;;;;;;5072363;28;20028;-82
2021/05/19 10:09:13;;;;;;;1.10;1.00;;;23.80;57.40;;;;;;5088890;28;20382;-80
2021/05/19 10:11:40;;;;;;;1.10;0.93;;;23.90;57.40;;;;;;5088857;28;20046;-81
2021/05/19 10:14:10;;;;;;;1.20;1.02;;;24.10;57.50;;;;;;5072138;28;20032;-81
2021/05/19 10:16:40;;;;;;;2.67;1.20;;;24.20;57.40;;;;;;5088993;28;20028;-80
2021/05/19 10:19:07;;;;;;;1.20;1.10;;;24.30;57.20;;;;;;5089178;28;20034;-80
2021/05/19 10:21:35;;;;;;;1.45;1.13;;;24.30;57.10;;;;;;5071944;28;20410;-80
2021/05/19 10:26:30;;;;;;;1.20;1.10;;;24.50;57.20;;;;;;5107068;28;20063;-80
2021/05/19 10:28:56;;;;;;;1.50;1.08;;;24.50;57.10;;;;;;5089220;28;20115;-81
2021/05/19 10:31:28;;;;;;;1.83;1.15;;;24.70;57.30;;;;;;5072034;28;20067;-82
2021/05/19 10:33:58;;;;;;;1.52;1.00;;;24.80;57.20;;;;;;5072118;28;20026;-83
2021/05/19 10:36:24;;;;;;;2.15;1.20;;;24.90;57.10;;;;;;5055822;28;20482;-81
2021/05/19 10:39:12;;;;;;;1.60;1.02;;;25.10;57.10;;;;;;5074102;28;20106;-81
2021/05/19 10:41:48;;;;;;;1.58;1.08;;;25.10;56.80;;;;;;5091928;28;20402;-81
2021/05/19 10:44:17;;;;;;;1.17;1.08;;;25.20;56.60;;;;;;5074682;28;20040;-81
2021/05/19 10:46:52;;;;;;;2.67;1.17;;;25.30;56.60;;;;;;5074760;28;20050;-80
2021/05/19 10:49:19;;;;;;;1.17;0.90;;;25.40;56.40;;;;;;5072692;28;20036;-81
2021/05/19 10:57:43;;;;;;;2.00;1.30;;;25.60;56.70;;;;;;5090608;28;20378;-80
2021/05/19 11:00:12;;;;;;;3.78;1.15;;;25.80;56.40;;;;;;5075021;28;20035;-81
2021/05/19 11:02:54;;;;;;;1.77;1.40;;;25.90;56.10;;;;;;5091243;28;20426;-82
2021/05/19 11:05:22;;;;;;;3.35;1.25;;;26.00;55.90;;;;;;5075337;28;20134;-81
2021/05/19 11:08:24;;;;;;;2.38;1.40;;;26.00;55.70;;;;;;5074896;28;20494;-82
2021/05/19 11:10:54;;;;;;;1.55;1.42;;;26.10;55.70;;;;;;4975256;28;20601;-80
2021/05/19 11:13:24;;;;;;;1.85;1.33;;;26.20;55.60;;;;;;5060512;28;20558;-82
2021/05/19 11:16:05;;;;;;;2.47;1.17;;;26.20;55.40;;;;;;5074942;28;20043;-81
2021/05/19 11:21:14;;;;;;;2.42;1.40;;;26.30;55.00;;;;;;5091381;28;20031;-79
2021/05/19 11:23:41;;;;;;;3.25;1.30;;;26.40;55.00;;;;;;5074912;28;20478;-79
2021/05/19 11:26:12;;;;;;;4.05;1.30;;;26.50;54.90;;;;;;5074873;28;20122;-79
2021/05/19 11:28:40;;;;;;;2.60;1.20;;;26.50;54.70;;;;;;5091065;28;20118;-79
2021/05/19 11:31:12;;;;;;;3.80;1.67;;;26.50;54.60;;;;;;5074671;28;20090;-80
2021/05/19 11:33:53;;;;;;;2.17;1.38;;;26.60;54.50;;;;;;5109139;28;20076;-79
2021/05/19 11:36:35;;;;;;;3.28;1.73;;;26.60;54.30;;;;;;5091613;28;20312;-80
2021/05/19 11:39:22;;;;;;;2.35;1.30;;;26.70;54.20;;;;;;5108888;28;20023;-80
2021/05/19 11:41:50;;;;;;;1.63;1.13;;;26.70;54.20;;;;;;5091846;28;20036;-80
2021/05/19 11:44:56;;;;;;;2.67;1.60;;;26.70;54.10;;;;;;5109084;28;20481;-80
2021/05/19 11:47:31;;;;;;;3.00;1.52;;;26.80;54.10;;;;;;5050667;28;20042;-80
2021/05/19 11:50:04;;;;;;;1.48;1.25;;;26.80;53.90;;;;;;5107634;28;20596;-80
2021/05/19 11:52:41;;;;;;;3.45;1.50;;;26.90;53.80;;;;;;5109746;28;20403;-79
2021/05/19 11:55:22;;;;;;;3.17;1.45;;;26.90;53.60;;;;;;5091231;28;20269;-80
2021/05/19 11:57:50;;;;;;;3.55;1.45;;;27.00;53.60;;;;;;5058140;28;20031;-80
2021/05/19 12:00:27;;;;;;;2.33;1.40;;;27.10;53.60;;;;;;5074102;28;20454;-85
2021/05/19 12:02:54;;;;;;;3.92;1.52;;;27.10;53.40;;;;;;5074108;28;20034;-84
2021/05/19 12:05:20;;;;;;;2.67;1.25;;;27.20;53.30;;;;;;5091004;28;20043;-80
2021/05/19 12:07:46;;;;;;;3.63;1.30;;;27.30;53.20;;;;;;5074383;28;20176;-80
2021/05/19 12:10:14;;;;;;;3.88;1.55;;;27.40;53.10;;;;;;5090645;28;20110;-81
2021/05/19 12:12:41;;;;;;;4.15;1.42;;;27.40;53.10;;;;;;5074433;28;20035;-81
2021/05/19 12:15:08;;;;;;;3.10;1.63;;;27.40;53.00;;;;;;5074468;28;20050;-82
2021/05/19 12:17:34;;;;;;;1.65;1.40;;;27.40;52.90;;;;;;5074331;28;20084;-81
2021/05/19 12:20:00;;;;;;;4.22;1.80;;;27.40;53.00;;;;;;5110832;27;20062;-80
2021/05/19 12:22:27;;;;;;;2.38;1.35;;;27.30;53.00;;;;;;5109552;27;20031;-81
2021/05/19 12:24:53;;;;;;;2.28;1.10;;;27.40;53.10;;;;;;5073242;28;20123;-80
2021/05/19 12:27:21;;;;;;;2.45;1.42;;;27.50;52.90;;;;;;5073778;28;20054;-81
2021/05/19 12:29:50;;;;;;;2.35;1.48;;;27.60;52.90;;;;;;5073306;28;20051;-81
2021/05/19 12:32:30;;;;;;;3.72;1.67;;;27.80;52.80;;;;;;5073423;28;20035;-81
2021/05/19 12:35:00;;;;;;;3.70;1.33;;;27.90;52.50;;;;;;5094845;27;20130;-80
2021/05/19 12:37:46;;;;;;;4.75;1.33;;;28.10;52.30;;;;;;5111095;27;20031;-81
2021/05/19 12:40:15;;;;;;;3.15;1.05;;;28.30;52.20;;;;;;5069795;28;20043;-80
2021/05/19 12:42:53;;;;;;;4.07;1.52;;;28.40;52.00;;;;;;5056556;28;20122;-81
2021/05/19 12:45:41;;;;;;;3.65;1.33;;;28.40;51.80;;;;;;5072690;28;20044;-80
2021/05/19 12:48:09;;;;;;;6.78;1.20;;;28.20;51.80;;;;;;5053416;28;20100;-81
2021/05/19 12:50:46;;;;;;;4.20;1.65;;;28.20;52.00;;;;;;5053281;28;20036;-81
2021/05/19 12:53:42;;;;;;;3.05;1.27;;;28.20;51.90;;;;;;5053325;28;20437;-80
2021/05/19 12:56:15;;;;;;;4.13;1.65;;;28.30;51.80;;;;;;5069345;28;20077;-82
2021/05/19 12:59:05;;;;;;;3.20;1.27;;;28.40;51.80;;;;;;5065889;28;20089;-82
2021/05/19 13:01:48;;;;;;;5.47;1.40;;;28.50;51.70;;;;;;5032304;28;20040;-83
2021/05/19 13:04:16;;;;;;;2.33;1.40;;;28.60;51.50;;;;;;5082789;28;20497;-84
2021/05/19 13:06:42;;;;;;;5.20;1.90;;;28.60;51.40;;;;;;5052979;28;20036;-83
2021/05/19 13:09:19;;;;;;;3.13;1.30;;;28.70;51.30;;;;;;5069656;28;20028;-85
2021/05/19 13:14:29;;;;;;;;;;;28.90;51.00;;;;;;5070746;28;20478;-85
2021/05/19 13:16:57;;;;;;;4.28;1.30;;;28.90;51.30;;;;;;5068959;28;20006;-81
2021/05/19 13:19:23;;;;;;;3.10;1.23;;;28.90;51.10;;;;;;5053188;28;20027;-82